Terminal Aerodrome Forecast
Issued by NWS

Home | Current Version | Previous Version | Text Only | Print | Product List | Glossary On
Versions: 1 2 3 4 5 6 7 8 9 10 11 12 13 14 15 16 17 18 19 20 21 22
000
FTUS46 KSEW 062300
TAFHQM
TAF
KHQM 062320Z 0700/0724 26016KT P6SM SCT027 SCT060
     FM070400 32004KT P6SM SKC
     FM071000 06004KT 2SM BR BKN004
     FM071500 VRB03KT P6SM SCT012
     FM071900 26012KT P6SM SKC=

USA.gov is the U.S. government's official web portal to all federal, state and local government web resources and services.